Time;durP1;ratioP1;P1;durP2;ratioP2;P2;SDS_P1;SDS_P2;PMS_P1;PMS_P2;Temp;Humidity;BMP_temperature;BMP_pressure;BME280_temperature;BME280_humidity;BME280_pressure;Samples;Min_cycle;Max_cycle;Signal;HPM_P1;HPM_P2
2022/09/15 00:01:45;;;;;;;13.35;5.13;;;;;;;19.22;56.84;94504.47;4205891;28;20055;-63
2022/09/15 00:03:47;;;;;;;12.88;5.55;;;;;;;19.21;56.90;94494.88;4204565;28;20052;-63
2022/09/15 00:05:51;;;;;;;15.98;5.57;;;;;;;19.22;57.10;94506.31;4209557;28;20052;-64
2022/09/15 00:07:53;;;;;;;9.00;4.78;;;;;;;19.27;56.83;94503.00;4210146;28;20562;-65
2022/09/15 00:09:54;;;;;;;15.20;5.35;;;;;;;19.28;56.96;94505.44;4208298;28;20502;-62
2022/09/15 00:11:56;;;;;;;10.65;5.18;;;;;;;19.34;56.56;94501.13;4210778;28;20563;-64
2022/09/15 00:13:59;;;;;;;9.98;4.72;;;;;;;19.38;56.47;94502.28;4209963;28;20067;-66
2022/09/15 00:16:02;;;;;;;10.85;4.78;;;;;;;19.42;56.61;94506.13;4200929;28;20052;-65
2022/09/15 00:18:05;;;;;;;7.78;4.53;;;;;;;19.44;56.38;94514.69;4211680;28;20055;-65
2022/09/15 00:20:07;;;;;;;13.40;5.05;;;;;;;19.39;56.54;94499.41;4210889;28;20511;-65
2022/09/15 00:22:08;;;;;;;11.55;4.93;;;;;;;19.42;56.49;94506.13;4197537;28;20071;-65
2022/09/15 00:24:10;;;;;;;13.18;4.88;;;;;;;19.42;56.59;94511.44;4210660;28;20058;-64
2022/09/15 00:26:14;;;;;;;7.45;4.75;;;;;;;19.33;56.69;94510.09;4197961;28;20127;-64
2022/09/15 00:28:18;;;;;;;9.63;5.10;;;;;;;19.22;56.79;94501.00;4210674;28;20094;-66
2022/09/15 00:30:19;;;;;;;;;;;;;;;19.22;57.07;94512.44;4214471;28;20135;-65
2022/09/15 00:32:21;;;;;;;9.20;5.60;;;;;;;19.28;57.09;94504.63;4203425;28;19943;-65
2022/09/15 00:34:23;;;;;;;10.40;4.97;;;;;;;19.34;56.99;94501.13;4210740;28;20052;-66
2022/09/15 00:36:25;;;;;;;10.23;4.70;;;;;;;19.35;56.88;94489.44;4208576;28;20217;-65
2022/09/15 00:38:27;;;;;;;11.52;5.45;;;;;;;19.35;56.86;94498.22;4211319;28;20465;-66
2022/09/15 00:40:29;;;;;;;7.93;4.95;;;;;;;19.32;57.15;94503.19;4208662;28;20060;-65
2022/09/15 00:42:31;;;;;;;11.95;5.53;;;;;;;19.12;57.41;94506.81;4211005;28;20543;-65
2022/09/15 00:44:35;;;;;;;9.90;5.03;;;;;;;19.10;57.58;94510.69;4209469;28;20087;-65
2022/09/15 00:46:39;;;;;;;8.40;4.50;;;;;;;19.13;57.39;94495.16;4209837;28;20091;-65
2022/09/15 00:48:49;;;;;;;9.88;4.90;;;;;;;19.20;57.36;94505.72;4207122;28;20472;-65
2022/09/15 00:50:53;;;;;;;10.20;5.50;;;;;;;19.24;57.31;94509.56;4210807;28;20048;-66
2022/09/15 00:52:57;;;;;;;9.52;4.82;;;;;;;19.30;57.09;94506.03;4210315;28;20505;-65
2022/09/15 00:55:09;;;;;;;11.27;5.13;;;;;;;19.34;56.99;94504.56;4207377;28;20708;-65
2022/09/15 00:57:22;;;;;;;9.23;5.05;;;;;;;19.34;56.91;94507.22;4211047;28;20059;-66
2022/09/15 00:59:26;;;;;;;9.50;4.53;;;;;;;19.37;56.96;94492.69;4210013;28;20138;-64
2022/09/15 01:01:30;;;;;;;10.73;4.85;;;;;;;19.39;57.13;94503.91;4195045;28;20044;-65
2022/09/15 01:03:32;;;;;;;9.38;4.90;;;;;;;19.33;57.29;94502.13;4208965;28;20675;-64
2022/09/15 01:05:45;;;;;;;10.02;5.20;;;;;;;19.29;57.40;94504.41;4209533;28;20112;-65
2022/09/15 01:07:59;;;;;;;10.10;4.68;;;;;;;19.16;57.88;94507.97;4211331;28;20574;-65
2022/09/15 01:10:08;;;;;;;6.97;4.50;;;;;;;19.14;57.62;94503.91;4204255;28;20090;-65
2022/09/15 01:12:10;;;;;;;8.52;4.43;;;;;;;19.15;57.76;94502.91;4193454;28;20044;-65
2022/09/15 01:14:11;;;;;;;5.95;4.10;;;;;;;19.19;57.72;94499.59;4205480;28;20863;-60
2022/09/15 01:16:56;;;;;;;7.38;3.72;;;;;;;19.20;57.63;94503.84;4209470;28;20083;-60
2022/09/15 01:19:16;;;;;;;7.47;4.35;;;;;;;19.18;57.30;94494.50;4193338;28;20040;-60
2022/09/15 01:21:24;;;;;;;8.25;4.20;;;;;;;19.16;57.58;94501.88;4213480;28;20056;-60
2022/09/15 01:23:28;;;;;;;5.88;3.95;;;;;;;19.14;57.74;94495.94;4205138;28;20143;-59
2022/09/15 01:25:42;;;;;;;7.63;4.32;;;;;;;19.05;57.92;94499.91;4212607;28;20341;-60
2022/09/15 01:28:08;;;;;;;10.90;4.43;;;;;;;19.03;57.69;94503.59;4213795;28;20146;-60
2022/09/15 01:30:16;;;;;;;8.95;4.90;;;;;;;19.01;58.12;94507.50;4214104;28;20097;-59
2022/09/15 01:34:45;;;;;;;6.05;3.40;;;;;;;18.98;57.56;94489.34;4210659;28;20137;-61
2022/09/15 01:36:53;;;;;;;7.78;4.03;;;;;;;18.97;57.77;94496.50;4213024;28;20051;-59
2022/09/15 01:39:07;;;;;;;6.93;4.07;;;;;;;18.99;57.80;94494.44;4212796;28;20051;-61
2022/09/15 01:41:14;;;;;;;8.75;4.07;;;;;;;18.99;57.23;94501.56;4199193;28;20569;-59
2022/09/15 01:43:18;;;;;;;5.22;3.45;;;;;;;18.98;57.13;94505.28;4212633;28;20131;-61
2022/09/15 01:45:29;;;;;;;5.85;3.58;;;;;;;19.01;56.71;94483.59;4210183;28;20082;-59
2022/09/15 01:47:33;;;;;;;4.82;3.55;;;;;;;19.03;56.49;94489.50;4203157;28;20121;-60
2022/09/15 01:49:45;;;;;;;;;;;;;;;18.96;56.89;94494.06;4212114;28;20079;-58
2022/09/15 01:51:50;;;;;;;12.35;4.20;;;;;;;18.79;57.22;94491.91;4212558;28;19920;-59
2022/09/15 01:53:53;;;;;;;9.05;4.03;;;;;;;18.72;57.42;94495.63;4210176;28;20056;-59
2022/09/15 01:56:05;;;;;;;9.02;3.80;;;;;;;18.64;57.01;94499.34;4210636;28;20135;-59
2022/09/15 01:58:07;;;;;;;6.93;3.33;;;;;;;18.63;56.84;94487.13;4197543;28;20055;-60
2022/09/15 02:00:09;;;;;;;9.18;3.50;;;;;;;18.61;56.78;94491.81;4205180;28;20131;-59
2022/09/15 02:02:16;;;;;;;5.05;3.13;;;;;;;18.59;56.25;94483.25;4212763;28;20140;-60
2022/09/15 02:04:33;;;;;;;8.30;3.80;;;;;;;18.55;56.44;94476.75;4212240;28;20136;-60
2022/09/15 02:07:12;;;;;;;10.55;3.58;;;;;;;18.54;56.64;94475.94;4213288;28;20119;-59
2022/09/15 02:09:21;;;;;;;6.88;3.72;;;;;;;18.52;56.37;94493.91;4160795;28;20049;-61
2022/09/15 02:11:29;;;;;;;5.95;3.05;;;;;;;18.47;56.55;94490.28;4184956;28;20109;-67
2022/09/15 02:13:52;;;;;;;6.68;3.08;;;;;;;18.41;56.73;94490.09;4213365;28;20157;-64
2022/09/15 02:15:56;;;;;;;7.23;4.13;;;;;;;18.48;56.43;94494.56;4216685;28;20127;-66
2022/09/15 02:18:00;;;;;;;4.70;3.63;;;;;;;18.55;56.42;94482.06;4204649;28;20285;-60
2022/09/15 02:20:09;;;;;;;5.88;3.38;;;;;;;18.60;56.31;94498.13;4207443;28;20048;-62
2022/09/15 02:22:22;;;;;;;5.45;3.47;;;;;;;18.64;55.96;94494.03;4213601;28;20159;-57
2022/09/15 02:24:29;;;;;;;8.77;3.60;;;;;;;18.66;55.99;94483.22;4200322;28;20413;-60
2022/09/15 02:26:32;;;;;;;6.35;3.33;;;;;;;18.69;56.12;94486.28;4211489;28;20123;-59
2022/09/15 02:28:36;;;;;;;6.38;3.47;;;;;;;18.70;55.93;94485.22;4213176;28;20048;-58
2022/09/15 02:30:40;;;;;;;;;;;;;;;18.75;55.56;94480.06;4215047;28;20128;-58
2022/09/15 02:32:56;;;;;;;6.30;3.20;;;;;;;18.76;55.52;94476.41;4211565;28;20261;-59
2022/09/15 02:34:58;;;;;;;5.88;3.38;;;;;;;18.74;55.73;94473.16;4202662;28;20048;-59
2022/09/15 02:37:00;;;;;;;8.25;3.85;;;;;;;18.76;55.67;94476.41;4211557;28;20054;-60
2022/09/15 02:39:09;;;;;;;6.28;4.05;;;;;;;18.75;55.89;94480.06;4211846;28;20148;-60
2022/09/15 02:41:12;;;;;;;7.70;3.28;;;;;;;18.70;56.09;94477.28;4210142;28;20079;-59
2022/09/15 02:43:15;;;;;;;6.82;3.40;;;;;;;18.68;56.17;94467.91;4196776;28;20139;-60
2022/09/15 02:45:18;;;;;;;7.97;4.07;;;;;;;18.56;56.34;94475.72;4211182;28;20060;-62
2022/09/15 02:47:21;;;;;;;8.68;3.75;;;;;;;18.49;56.55;94481.06;4212943;28;20081;-59
2022/09/15 02:49:22;;;;;;;6.88;3.75;;;;;;;18.46;56.79;94481.50;4213096;28;20127;-59
2022/09/15 02:51:24;;;;;;;9.68;3.80;;;;;;;18.50;56.80;94495.97;4212510;28;20464;-60
2022/09/15 02:53:25;;;;;;;9.15;4.00;;;;;;;18.55;56.32;94482.06;4212151;28;20134;-60
2022/09/15 02:55:27;;;;;;;8.98;3.80;;;;;;;18.57;55.88;94472.84;4208555;28;20040;-60
2022/09/15 02:57:29;;;;;;;7.40;3.65;;;;;;;18.62;55.91;94480.16;4209232;28;20462;-59
2022/09/15 03:00:11;;;;;;;10.80;4.20;;;;;;;18.66;55.71;94470.75;4206991;28;20142;-59
2022/09/15 03:01:53;;;;;;;7.63;3.88;;;;;;;18.66;55.70;94470.75;4210137;28;20226;-58
2022/09/15 03:03:54;;;;;;;7.15;3.72;;;;;;;18.68;56.05;94478.50;4209358;28;20058;-57
2022/09/15 03:06:15;;;;;;;7.80;3.92;;;;;;;18.62;56.23;94477.53;4206400;28;20060;-59
2022/09/15 03:08:16;;;;;;;5.80;3.63;;;;;;;18.60;56.56;94472.41;4201485;28;20098;-61
2022/09/15 03:10:19;;;;;;;8.57;4.25;;;;;;;18.58;56.45;94476.31;4210714;28;20052;-58
2022/09/15 03:12:39;;;;;;;9.07;4.28;;;;;;;18.53;56.84;94476.97;4199458;28;20407;-61
2022/09/15 03:14:41;;;;;;;5.85;3.70;;;;;;;18.54;56.77;94489.22;4198198;28;20505;-59
2022/09/15 03:16:43;;;;;;;14.20;4.13;;;;;;;18.57;56.78;94496.72;4198488;28;20043;-61
2022/09/15 03:18:45;;;;;;;12.60;4.07;;;;;;;18.54;56.89;94501.66;4200414;28;20058;-60
2022/09/15 03:20:47;;;;;;;10.52;4.15;;;;;;;18.50;56.74;94503.09;4207685;28;20082;-60
2022/09/15 03:22:48;;;;;;;7.85;4.65;;;;;;;18.30;57.36;94511.97;4198958;28;20553;-58
2022/09/15 03:24:50;;;;;;;8.68;3.95;;;;;;;18.28;57.66;94511.34;4197054;28;20204;-59
2022/09/15 03:26:52;;;;;;;10.30;4.45;;;;;;;18.32;57.33;94512.56;4199781;28;20063;-57
2022/09/15 03:28:54;;;;;;;9.05;4.10;;;;;;;18.37;57.34;94514.63;4199355;28;20072;-59
2022/09/15 03:30:55;;;;;;;9.10;4.22;;;;;;;18.41;57.31;94521.94;4209692;28;20048;-59
2022/09/15 03:32:57;;;;;;;9.50;4.10;;;;;;;18.46;57.11;94518.63;4212496;28;20500;-65
2022/09/15 03:34:59;;;;;;;11.13;4.40;;;;;;;18.50;56.82;94513.69;4199378;28;20051;-65
2022/09/15 03:37:00;;;;;;;12.75;4.53;;;;;;;18.46;57.66;94507.22;4197937;28;20036;-66
2022/09/15 03:39:02;;;;;;;9.68;4.60;;;;;;;18.45;57.44;94516.19;4197498;28;20084;-65
2022/09/15 03:41:09;;;;;;;8.35;5.05;;;;;;;18.40;57.52;94511.53;4195730;28;20060;-65
2022/09/15 03:43:11;;;;;;;13.00;4.50;;;;;;;18.41;57.18;94505.19;4210165;28;20040;-66
2022/09/15 03:45:19;;;;;;;13.23;5.28;;;;;;;18.39;57.62;94502.75;4208726;28;20079;-66
2022/09/15 03:47:20;;;;;;;11.02;4.80;;;;;;;18.23;58.02;94510.38;4201214;28;20466;-65
2022/09/15 03:49:23;;;;;;;6.25;4.38;;;;;;;18.03;58.32;94499.88;4211476;28;20075;-67
2022/09/15 03:51:25;;;;;;;8.68;4.38;;;;;;;18.00;58.54;94509.88;4210550;28;20620;-65
2022/09/15 03:53:30;;;;;;;9.90;5.07;;;;;;;17.89;59.18;94504.38;4211726;28;20048;-65
2022/09/15 03:55:32;;;;;;;13.88;5.53;;;;;;;17.78;59.25;94501.31;4200180;28;20139;-65
2022/09/15 03:57:33;;;;;;;18.63;5.47;;;;;;;17.85;59.25;94503.97;4195447;28;20045;-65
2022/09/15 03:59:35;;;;;;;10.88;5.10;;;;;;;17.94;58.94;94500.09;4195432;28;20682;-65
2022/09/15 04:01:37;;;;;;;9.50;4.88;;;;;;;18.00;58.84;94498.44;4195526;28;20194;-65
2022/09/15 04:03:39;;;;;;;7.28;4.30;;;;;;;18.10;58.24;94500.66;4206265;28;20055;-66
2022/09/15 04:05:48;;;;;;;7.93;5.03;;;;;;;18.13;58.50;94492.25;4196112;28;20123;-64
2022/09/15 04:07:49;;;;;;;9.23;4.95;;;;;;;18.18;58.12;94505.72;4199726;28;20752;-66
2022/09/15 04:09:52;;;;;;;7.28;4.55;;;;;;;18.24;57.75;94504.03;4200220;28;20534;-67
2022/09/15 04:11:53;;;;;;;9.90;4.63;;;;;;;18.28;57.60;94503.41;4208723;28;20461;-66
2022/09/15 04:13:55;;;;;;;9.40;4.85;;;;;;;18.31;58.01;94495.03;4195076;28;20144;-66
2022/09/15 04:15:59;;;;;;;12.35;4.63;;;;;;;18.32;57.98;94501.97;4195370;28;20049;-67
2022/09/15 04:18:03;;;;;;;12.95;4.43;;;;;;;18.32;57.93;94511.75;4206743;28;20052;-67
2022/09/15 04:20:05;;;;;;;6.32;4.85;;;;;;;18.33;57.54;94503.59;4209414;28;20607;-65
2022/09/15 04:22:07;;;;;;;11.05;4.90;;;;;;;18.36;57.49;94505.81;4211731;28;20151;-66
2022/09/15 04:24:08;;;;;;;8.55;4.65;;;;;;;18.36;57.49;94497.88;4212001;28;20505;-60
2022/09/15 04:26:16;;;;;;;12.98;5.50;;;;;;;18.39;57.46;94491.31;4210166;28;20432;-60
2022/09/15 04:28:17;;;;;;;7.78;4.25;;;;;;;18.38;56.96;94495.81;4210402;28;20096;-58
2022/09/15 04:30:19;;;;;;;10.23;3.72;;;;;;;18.35;56.14;94492.78;4211689;28;20135;-61
2022/09/15 04:32:21;;;;;;;9.68;4.05;;;;;;;18.36;56.21;94500.50;4207090;28;20143;-60
2022/09/15 04:34:23;;;;;;;11.00;4.90;;;;;;;18.34;56.47;94499.91;4210800;28;20135;-59
2022/09/15 04:36:27;;;;;;;12.35;5.10;;;;;;;18.33;56.71;94508.09;4210212;28;20041;-60
2022/09/15 04:38:29;;;;;;;11.68;5.35;;;;;;;18.36;56.57;94510.31;4211184;28;20105;-61
2022/09/15 04:40:31;;;;;;;13.57;5.03;;;;;;;18.41;56.60;94503.38;4209023;28;20052;-59
2022/09/15 04:42:32;;;;;;;10.30;5.13;;;;;;;18.45;56.60;94503.72;4211063;28;20127;-60
2022/09/15 04:44:34;;;;;;;9.02;4.25;;;;;;;18.55;55.96;94505.94;4211655;28;20052;-60
2022/09/15 04:46:35;;;;;;;9.65;4.95;;;;;;;18.57;56.00;94494.09;4210969;28;20044;-60
2022/09/15 04:48:37;;;;;;;18.50;5.43;;;;;;;18.44;55.73;94503.97;4211093;28;20130;-59
2022/09/15 04:50:39;;;;;;;15.98;6.05;;;;;;;18.37;56.09;94494.22;4210633;28;20052;-61
2022/09/15 04:52:41;;;;;;;13.95;5.43;;;;;;;18.41;56.15;94495.41;4211393;28;20426;-59
2022/09/15 04:54:43;;;;;;;6.75;4.45;;;;;;;18.49;55.82;94502.28;4211550;28;20143;-60
2022/09/15 04:56:44;;;;;;;13.65;5.03;;;;;;;18.60;55.10;94504.25;4214332;28;20503;-57
2022/09/15 04:58:49;;;;;;;13.02;4.80;;;;;;;18.70;54.74;94498.50;4213339;28;20136;-60
2022/09/15 05:00:51;;;;;;;13.05;4.53;;;;;;;18.81;54.50;94497.81;4200205;28;20593;-60
2022/09/15 05:02:53;;;;;;;11.80;5.07;;;;;;;18.86;54.00;94504.34;4201731;28;20071;-60
2022/09/15 05:04:54;;;;;;;13.75;5.35;;;;;;;18.87;54.21;94501.47;4213675;28;20135;-59
2022/09/15 05:06:56;;;;;;;14.50;4.55;;;;;;;18.96;53.80;94496.72;4214115;28;20054;-59
2022/09/15 05:08:57;;;;;;;15.43;4.82;;;;;;;19.05;54.21;94498.06;4213357;28;20130;-59
2022/09/15 05:11:02;;;;;;;15.48;4.88;;;;;;;19.17;53.81;94499.00;4211531;28;20536;-61
2022/09/15 05:13:04;;;;;;;12.73;5.35;;;;;;;19.28;53.68;94494.81;4213395;28;20168;-61
2022/09/15 05:15:06;;;;;;;11.52;5.20;;;;;;;19.37;53.54;94500.66;4200299;28;20052;-61
2022/09/15 05:17:08;;;;;;;15.55;5.43;;;;;;;19.43;52.96;94495.28;4202020;28;20621;-59
2022/09/15 05:19:10;;;;;;;10.50;5.00;;;;;;;19.49;53.18;94498.09;4210364;28;20130;-60
2022/09/15 05:21:13;;;;;;;12.80;4.38;;;;;;;19.52;53.40;94489.69;4203685;28;20134;-61
2022/09/15 05:23:15;;;;;;;12.50;5.00;;;;;;;19.52;53.09;94495.81;4199339;28;20055;-60
2022/09/15 05:25:17;;;;;;;13.35;5.65;;;;;;;19.54;53.33;94483.13;4197122;28;20101;-62
2022/09/15 05:27:19;;;;;;;19.42;5.97;;;;;;;19.57;53.05;94490.66;4198218;28;20083;-59
2022/09/15 05:29:20;;;;;;;20.77;4.60;;;;;;;19.63;52.60;94481.81;4198656;28;20131;-62
2022/09/15 05:31:29;;;;;;;21.38;4.65;;;;;;;19.68;52.45;94483.00;4199817;28;20553;-60
2022/09/15 05:33:31;;;;;;;31.55;5.72;;;;;;;19.71;52.67;94486.06;4215218;28;20101;-62
2022/09/15 05:35:33;;;;;;;14.07;4.90;;;;;;;19.70;52.24;94480.94;4209464;28;20054;-61
2022/09/15 05:37:34;;;;;;;19.08;4.82;;;;;;;19.76;52.11;94485.38;4209796;28;20052;-62
2022/09/15 05:39:38;;;;;;;14.93;5.03;;;;;;;19.82;52.06;94473.88;4198040;28;20557;-60
2022/09/15 05:41:40;;;;;;;17.20;4.55;;;;;;;19.87;51.97;94471.34;4197800;28;20087;-60
2022/09/15 05:43:44;;;;;;;11.13;4.53;;;;;;;19.92;52.22;94474.19;4198299;28;20074;-61
2022/09/15 05:45:53;;;;;;;13.35;5.03;;;;;;;19.91;51.98;94463.75;4197543;28;20072;-59
2022/09/15 05:47:55;;;;;;;13.05;4.78;;;;;;;19.95;52.18;94456.97;4197406;28;20079;-58
2022/09/15 05:49:56;;;;;;;10.20;4.82;;;;;;;19.95;52.03;94467.59;4197622;28;20094;-61
2022/09/15 05:51:58;;;;;;;12.07;5.05;;;;;;;19.93;51.75;94459.03;4197343;28;20049;-60
2022/09/15 05:54:00;;;;;;;8.50;4.90;;;;;;;19.92;51.82;94447.59;4208527;28;20468;-65
2022/09/15 05:56:04;;;;;;;9.23;4.55;;;;;;;19.95;51.92;94452.44;4212018;28;20079;-65
2022/09/15 05:58:06;;;;;;;14.82;4.70;;;;;;;20.02;52.12;94447.84;4197759;28;20139;-65
2022/09/15 06:00:08;;;;;;;17.13;5.15;;;;;;;20.12;51.96;94457.16;4198157;28;20086;-65
2022/09/15 06:02:10;;;;;;;11.02;4.28;;;;;;;20.17;51.41;94454.63;4203827;28;20411;-66
2022/09/15 06:04:12;;;;;;;13.05;4.45;;;;;;;20.28;51.10;94458.38;4199806;28;20071;-67
2022/09/15 06:06:14;;;;;;;12.23;4.30;;;;;;;20.40;50.87;94453.94;4197553;28;20136;-66
2022/09/15 06:08:16;;;;;;;12.85;4.80;;;;;;;20.44;50.76;94453.25;4207568;28;20090;-66
2022/09/15 06:10:18;;;;;;;15.05;4.38;;;;;;;20.50;50.31;94442.72;4206572;28;20567;-64
2022/09/15 06:12:20;;;;;;;8.50;4.43;;;;;;;20.55;50.20;94450.84;4212782;28;20052;-66
2022/09/15 06:14:21;;;;;;;11.15;4.43;;;;;;;20.38;50.01;94459.47;4206079;28;20056;-65
2022/09/15 06:16:24;;;;;;;8.68;4.25;;;;;;;20.18;50.58;94464.25;4197301;28;20080;-66
2022/09/15 06:18:25;;;;;;;14.82;4.65;;;;;;;19.92;50.95;94474.19;4211005;28;20048;-66
2022/09/15 06:20:27;;;;;;;12.32;4.22;;;;;;;19.99;51.07;94469.59;4213031;28;20079;-64
2022/09/15 06:22:29;;;;;;;12.18;4.90;;;;;;;20.17;51.15;94470.59;4213478;28;20075;-67
2022/09/15 06:24:30;;;;;;;8.00;4.60;;;;;;;20.34;51.07;94466.28;4213240;28;20078;-67
2022/09/15 06:26:33;;;;;;;8.95;3.97;;;;;;;20.55;50.66;94451.66;4210986;28;20048;-67
2022/09/15 06:28:35;;;;;;;11.25;4.65;;;;;;;20.72;50.30;94446.53;4213218;28;20227;-68
2022/09/15 06:30:39;;;;;;;12.95;4.88;;;;;;;20.82;49.81;94452.13;4212402;28;20048;-66
2022/09/15 06:32:41;;;;;;;13.52;4.32;;;;;;;20.71;49.70;94452.88;4212300;28;20112;-66
2022/09/15 06:34:48;;;;;;;10.98;4.88;;;;;;;20.84;49.86;94466.03;4205995;28;20601;-67
2022/09/15 06:36:50;;;;;;;9.18;4.47;;;;;;;20.93;49.18;94455.84;4210885;28;20148;-66
2022/09/15 06:38:51;;;;;;;9.45;5.18;;;;;;;20.97;49.15;94451.69;4213670;28;20404;-65
2022/09/15 06:40:58;;;;;;;10.73;4.50;;;;;;;20.98;49.23;94444.50;4208478;28;20062;-65
2022/09/15 06:42:59;;;;;;;13.07;4.50;;;;;;;21.13;49.36;94441.41;4210468;28;20072;-65
2022/09/15 06:45:01;;;;;;;9.30;4.32;;;;;;;21.20;48.99;94450.88;4212406;28;20459;-67
2022/09/15 06:47:04;;;;;;;10.20;4.20;;;;;;;20.94;48.99;94457.47;4196486;28;20055;-67
2022/09/15 06:49:06;;;;;;;11.32;4.82;;;;;;;21.04;49.02;94464.91;4204088;28;20121;-66
2022/09/15 06:51:10;;;;;;;11.45;4.75;;;;;;;21.16;49.09;94457.72;4201612;28;20087;-66
2022/09/15 06:53:11;;;;;;;12.75;4.47;;;;;;;21.38;48.95;94457.13;4200308;28;20142;-67
2022/09/15 06:55:13;;;;;;;11.05;4.88;;;;;;;21.53;48.03;94462.03;4204158;28;20167;-64
2022/09/15 06:57:14;;;;;;;12.30;4.82;;;;;;;21.53;48.16;94465.53;4196355;28;20067;-65
2022/09/15 06:59:16;;;;;;;11.52;4.30;;;;;;;21.65;48.18;94474.31;4208985;28;20080;-63
2022/09/15 07:01:26;;;;;;;9.73;4.13;;;;;;;21.75;47.73;94480.94;4212532;28;20135;-65
2022/09/15 07:03:27;;;;;;;8.43;4.22;;;;;;;21.67;47.27;94477.56;4211586;28;20345;-66
2022/09/15 07:05:29;;;;;;;10.95;3.65;;;;;;;21.32;47.26;94477.53;4211569;28;20060;-66
2022/09/15 07:07:31;;;;;;;6.20;3.65;;;;;;;21.14;47.91;94477.63;4210563;28;20127;-60
2022/09/15 07:09:32;;;;;;;12.52;4.15;;;;;;;21.13;47.61;94479.47;4211601;28;20047;-59
2022/09/15 07:11:34;;;;;;;7.13;3.80;;;;;;;21.23;47.62;94490.38;4211617;28;20052;-59
2022/09/15 07:13:36;;;;;;;8.63;3.72;;;;;;;21.33;47.10;94494.34;4197279;28;20055;-59
2022/09/15 07:15:38;;;;;;;12.32;3.67;;;;;;;21.40;46.81;94511.00;4199777;28;20524;-63
2022/09/15 07:17:40;;;;;;;12.40;4.22;;;;;;;21.40;46.67;94505.69;4212095;28;20135;-61
2022/09/15 07:19:42;;;;;;;14.23;4.85;;;;;;;21.46;47.02;94508.25;4212372;28;20136;-60
2022/09/15 07:21:43;;;;;;;14.65;5.85;;;;;;;21.43;47.70;94505.25;4210894;28;20091;-65
2022/09/15 07:23:46;;;;;;;16.73;5.93;;;;;;;21.62;47.65;94504.09;4211951;28;20076;-62
2022/09/15 07:25:47;;;;;;;13.35;5.57;;;;;;;21.56;46.95;94513.03;4192801;28;20136;-60
2022/09/15 07:27:49;;;;;;;12.65;5.63;;;;;;;21.62;47.11;94524.63;4211753;28;20083;-58
2022/09/15 07:29:51;;;;;;;19.38;7.78;;;;;;;21.67;47.11;94517.53;4211048;28;20442;-60
2022/09/15 07:31:52;;;;;;;19.90;9.43;;;;;;;21.70;47.24;94516.25;4211390;28;20040;-60
2022/09/15 07:33:54;;;;;;;13.95;6.35;;;;;;;21.71;47.56;94522.41;4212062;28;20404;-57
2022/09/15 07:35:56;;;;;;;10.43;5.88;;;;;;;21.62;47.92;94530.75;4218831;28;20058;-60
2022/09/15 07:37:59;;;;;;;15.13;6.53;;;;;;;21.71;47.18;94531.22;4211288;28;20173;-59
2022/09/15 07:40:01;;;;;;;9.20;5.70;;;;;;;21.90;46.89;94531.91;4210324;28;20131;-61
2022/09/15 07:42:03;;;;;;;14.98;7.28;;;;;;;22.17;46.60;94532.19;4212134;28;20052;-62
2022/09/15 07:44:06;;;;;;;12.68;5.63;;;;;;;22.37;45.98;94526.53;4205588;28;20135;-62
2022/09/15 07:46:07;;;;;;;21.27;10.30;;;;;;;22.37;46.16;94523.84;4205445;28;20436;-61
2022/09/15 07:48:09;;;;;;;27.20;9.20;;;;;;;22.49;45.49;94523.81;4212200;28;20538;-60
2022/09/15 07:50:13;;;;;;;12.90;6.28;;;;;;;22.58;45.46;94514.34;4198720;28;20052;-61
2022/09/15 07:52:15;;;;;;;11.90;5.22;;;;;;;22.74;45.68;94510.13;4212100;28;20131;-60
2022/09/15 07:54:16;;;;;;;19.85;5.93;;;;;;;22.86;45.60;94508.19;4211244;28;20056;-64
2022/09/15 07:56:23;;;;;;;10.57;5.60;;;;;;;22.98;44.91;94507.34;4197199;28;20478;-60
2022/09/15 07:58:25;;;;;;;15.27;5.30;;;;;;;23.12;44.91;94514.00;4201246;28;20052;-70
2022/09/15 08:00:27;;;;;;;13.25;4.93;;;;;;;23.30;44.56;94516.47;4211627;28;20075;-67
2022/09/15 08:02:29;;;;;;;12.00;4.80;;;;;;;23.43;44.41;94509.19;4211236;28;20061;-69
2022/09/15 08:04:31;;;;;;;11.98;4.93;;;;;;;23.53;43.97;94503.97;4211003;28;20404;-68
2022/09/15 08:06:32;;;;;;;14.32;4.90;;;;;;;23.61;43.67;94502.75;4210812;28;20088;-66
2022/09/15 08:08:38;;;;;;;15.20;4.90;;;;;;;23.41;43.31;94509.41;4210753;28;20131;-68
2022/09/15 08:10:40;;;;;;;10.90;4.68;;;;;;;23.44;43.48;94508.91;4209309;28;20101;-66
2022/09/15 08:12:42;;;;;;;10.80;4.72;;;;;;;23.41;43.67;94503.25;4209645;28;20055;-65
2022/09/15 08:14:43;;;;;;;15.00;5.00;;;;;;;23.51;43.35;94504.22;4210615;28;20790;-68
2022/09/15 08:16:45;;;;;;;9.95;4.68;;;;;;;23.40;43.11;94497.09;4198721;28;20091;-67
2022/09/15 08:18:48;;;;;;;16.63;5.25;;;;;;;23.50;44.09;94497.25;4196377;28;20119;-71
2022/09/15 08:20:49;;;;;;;7.57;4.82;;;;;;;23.70;43.52;94499.44;4201200;28;20044;-67
2022/09/15 08:22:51;;;;;;;8.63;4.43;;;;;;;23.88;43.05;94492.22;4200535;28;20098;-66
2022/09/15 08:24:53;;;;;;;9.25;4.38;;;;;;;24.04;42.96;94487.88;4206658;28;20558;-68
2022/09/15 08:26:55;;;;;;;11.98;5.43;;;;;;;24.06;42.63;94486.56;4208599;28;20055;-67
2022/09/15 08:28:57;;;;;;;12.50;5.00;;;;;;;24.21;42.74;94480.59;4195938;28;20120;-69
2022/09/15 08:31:04;;;;;;;12.98;4.63;;;;;;;24.36;42.72;94479.94;4196093;28;20076;-68
2022/09/15 08:33:06;;;;;;;13.45;4.97;;;;;;;24.44;42.04;94471.47;4197358;28;20057;-67
2022/09/15 08:35:08;;;;;;;16.45;5.40;;;;;;;24.39;42.26;94475.97;4199661;28;20128;-67
2022/09/15 08:37:10;;;;;;;10.88;4.30;;;;;;;24.44;42.37;94465.31;4210856;28;20083;-64
2022/09/15 08:39:12;;;;;;;10.52;4.47;;;;;;;24.61;42.04;94467.91;4204302;28;20408;-65
2022/09/15 08:41:38;;;;;;;11.15;5.35;;;;;;;24.77;41.84;94469.69;4196503;28;20068;-68
2022/09/15 08:43:45;;;;;;;11.07;4.80;;;;;;;24.71;41.46;94460.78;4198983;28;20059;-67
2022/09/15 08:46:03;;;;;;;11.13;4.60;;;;;;;24.79;41.43;94462.22;4203181;28;20052;-65
2022/09/15 08:48:07;;;;;;;14.63;4.75;;;;;;;24.92;41.76;94469.84;4207314;28;20066;-68
2022/09/15 08:50:28;;;;;;;;;;;;;;;25.08;41.48;94461.94;4196390;28;20048;-70
2022/09/15 08:52:48;;;;;;;15.48;5.07;;;;;;;25.26;41.86;94460.78;4195122;28;20300;-67
2022/09/15 08:54:52;;;;;;;14.30;5.15;;;;;;;25.39;41.50;94456.84;4205614;28;20629;-67
2022/09/15 08:56:55;;;;;;;13.70;5.07;;;;;;;25.26;40.89;94458.09;4201360;28;20131;-68
2022/09/15 08:58:57;;;;;;;11.70;4.63;;;;;;;25.12;41.42;94463.88;4199781;28;20567;-67
2022/09/15 09:01:03;;;;;;;9.95;4.47;;;;;;;25.26;41.15;94444.69;4194517;28;20145;-67
2022/09/15 09:03:22;;;;;;;10.38;4.95;;;;;;;25.43;41.25;94448.03;4199503;28;20079;-67
2022/09/15 09:05:42;;;;;;;10.02;4.85;;;;;;;25.59;40.79;94442.78;4198299;28;20540;-67
2022/09/15 09:08:15;;;;;;;12.20;4.53;;;;;;;25.79;40.16;94447.44;4194825;28;20136;-69
2022/09/15 09:10:49;;;;;;;17.70;4.88;;;;;;;25.88;39.91;94443.22;4166942;28;20545;-66
2022/09/15 09:12:50;;;;;;;8.77;4.90;;;;;;;25.92;39.74;94437.09;4176910;28;20048;-67
2022/09/15 09:15:04;;;;;;;11.18;4.97;;;;;;;25.99;39.57;94438.72;4199270;28;20095;-67
2022/09/15 09:17:34;;;;;;;11.55;4.55;;;;;;;26.14;39.49;94439.59;4194709;28;20479;-67
2022/09/15 09:19:57;;;;;;;12.63;4.75;;;;;;;26.29;39.12;94432.66;4194859;28;20056;-69
2022/09/15 09:22:08;;;;;;;11.15;5.05;;;;;;;26.28;38.56;94437.19;4197982;28;20082;-67
2022/09/15 09:24:43;;;;;;;12.10;4.30;;;;;;;26.42;39.10;94437.53;4194281;28;20072;-69
2022/09/15 09:26:48;;;;;;;13.82;4.55;;;;;;;26.60;38.59;94430.09;4196660;28;20048;-68
2022/09/15 09:28:58;;;;;;;8.20;3.92;;;;;;;26.74;38.48;94423.94;4203734;28;20045;-69
2022/09/15 09:31:06;;;;;;;13.85;4.32;;;;;;;26.86;38.13;94418.28;4195095;28;20048;-70
2022/09/15 09:33:30;;;;;;;16.23;4.43;;;;;;;26.91;37.84;94412.94;4209153;28;20051;-67
2022/09/15 09:35:36;;;;;;;;;;;;;;;26.96;37.87;94399.47;4200989;28;20072;-73
2022/09/15 09:37:38;;;;;;;11.93;3.90;;;;;;;27.00;37.54;94397.06;4211298;28;19927;-65
2022/09/15 09:39:40;;;;;;;16.83;4.03;;;;;;;27.06;37.19;94405.91;4204675;28;20144;-67
2022/09/15 09:41:43;;;;;;;10.90;3.65;;;;;;;27.01;37.64;94390.59;4197917;28;20131;-66
2022/09/15 09:43:46;;;;;;;8.85;4.15;;;;;;;26.99;36.81;94408.88;4199360;28;20124;-69
2022/09/15 09:45:49;;;;;;;15.80;4.18;;;;;;;26.94;37.27;94417.75;4204266;28;20048;-67
2022/09/15 09:47:51;;;;;;;11.30;3.80;;;;;;;27.03;37.07;94409.16;4214357;28;20533;-69